Time;durP1;ratioP1;P1;durP2;ratioP2;P2;SDS_P1;SDS_P2;PMS_P1;PMS_P2;Temp;Humidity;BMP_temperature;BMP_pressure;BME280_temperature;BME280_humidity;BME280_pressure;Samples;Min_cycle;Max_cycle;Signal;HPM_P1;HPM_P2
2022/10/19 00:00:09;;;;;;;;;;;;;;;10.49;100.00;102428.66;20757188;28;19929;-64
2022/10/19 00:10:31;;;;;;;;;;;;;;;10.38;100.00;102441.25;20737042;28;19928;-64
2022/10/19 00:21:00;;;;;;;;;;;;;;;10.37;100.00;102435.19;20825777;28;19933;-65
2022/10/19 00:31:22;;;;;;;;;;;;;;;10.43;100.00;102434.94;20756823;28;19971;-64
2022/10/19 00:41:44;;;;;;;;;;;;;;;10.52;100.00;102431.13;20747477;28;19930;-65
2022/10/19 00:52:07;;;;;;;;;;;;;;;10.65;100.00;102447.09;20750676;28;19926;-64
2022/10/19 01:02:28;;;;;;;;;;;;;;;10.47;100.00;102443.53;20736611;28;19982;-65
2022/10/19 01:12:56;;;;;;;;;;;;;;;10.45;100.00;102438.34;20770292;28;19975;-64
2022/10/19 01:23:37;;;;;;;;;;;;;;;10.60;100.00;102443.84;20723868;28;19981;-65
2022/10/19 01:34:01;;;;;;;;;;;;;;;10.71;100.00;102441.66;20766603;28;19929;-65
2022/10/19 01:44:41;;;;;;;;;;;;;;;10.78;100.00;102437.88;20728027;28;19970;-64
2022/10/19 01:55:03;;;;;;;;;;;;;;;10.71;100.00;102431.22;20752211;28;19925;-65
2022/10/19 02:05:29;;;;;;;;;;;;;;;10.79;100.00;102434.34;20711920;28;19964;-64
2022/10/19 02:15:52;;;;;;;;;;;;;;;10.72;100.00;102427.72;20792249;28;19925;-64
2022/10/19 02:26:13;;;;;;;;;;;;;;;10.83;100.00;102425.50;20742353;28;19929;-65
2022/10/19 02:36:35;;;;;;;;;;;;;;;10.62;100.00;102431.56;20764051;28;19988;-64
2022/10/19 02:47:01;;;;;;;;;;;;;;;10.65;100.00;102431.44;20748074;28;19982;-64
2022/10/19 02:57:23;;;;;;;;;;;;;;;10.53;100.00;102444.13;20769143;28;19985;-65
2022/10/19 03:07:45;;;;;;;;;;;;;;;10.53;100.00;102447.56;20719812;28;20499;-65
2022/10/19 03:18:07;;;;;;;;;;;;;;;10.53;100.00;102450.19;20723549;28;19978;-64
2022/10/19 03:28:28;;;;;;;;;;;;;;;10.52;100.00;102444.19;20727755;28;20113;-65
2022/10/19 03:38:50;;;;;;;;;;;;;;;10.52;100.00;102449.38;20741804;28;19930;-64
2022/10/19 03:49:12;;;;;;;;;;;;;;;10.30;100.00;102453.72;20752656;28;20007;-64
2022/10/19 03:59:33;;;;;;;;;;;;;;;10.43;100.00;102449.75;20714675;28;19958;-64
2022/10/19 04:09:54;;;;;;;;;;;;;;;10.39;100.00;102459.47;20821134;28;19933;-64
2022/10/19 04:20:16;;;;;;;;;;;;;;;10.50;100.00;102462.50;20717701;28;19925;-68
2022/10/19 04:30:37;;;;;;;;;;;;;;;10.46;100.00;102475.72;20727250;28;19926;-64
2022/10/19 04:41:03;;;;;;;;;;;;;;;10.35;100.00;102477.84;20733544;27;20408;-64
2022/10/19 04:51:25;;;;;;;;;;;;;;;10.43;100.00;102481.03;20745310;28;19971;-67
2022/10/19 05:01:46;;;;;;;;;;;;;;;10.47;100.00;102477.41;20728249;28;19926;-65
2022/10/19 05:12:07;;;;;;;;;;;;;;;10.49;100.00;102471.22;20714095;28;19933;-65
2022/10/19 05:22:29;;;;;;;;;;;;;;;10.45;100.00;102468.81;20807905;28;20131;-64
2022/10/19 05:32:50;;;;;;;;;;;;;;;10.52;100.00;102461.53;20724036;28;19958;-65
2022/10/19 05:43:12;;;;;;;;;;;;;;;10.59;96.74;102456.91;20727349;28;19994;-64
2022/10/19 05:53:33;;;;;;;;;;;;;;;10.63;99.58;102463.72;20734862;28;20018;-64
2022/10/19 06:03:56;;;;;;;;;;;;;;;10.53;100.00;102454.56;20728135;28;19926;-64
2022/10/19 06:14:18;;;;;;;;;;;;;;;10.56;100.00;102463.13;20752778;28;19965;-65
2022/10/19 06:24:39;;;;;;;;;;;;;;;10.56;99.74;102472.69;20722245;28;19975;-64
2022/10/19 06:35:00;;;;;;;;;;;;;;;10.66;98.21;102480.09;20792278;28;19929;-64
2022/10/19 06:45:22;;;;;;;;;;;;;;;10.75;97.71;102482.38;20718788;28;19929;-65
2022/10/19 06:55:43;;;;;;;;;;;;;;;10.77;100.00;102508.38;20725234;28;19988;-64
2022/10/19 07:06:06;;;;;;;;;;;;;;;10.92;95.61;102513.00;20726228;28;19978;-64
2022/10/19 07:16:27;;;;;;;;;;;;;;;10.98;96.65;102516.22;20726650;28;19982;-65
2022/10/19 07:26:48;;;;;;;;;;;;;;;11.07;97.72;102521.06;20726215;28;20269;-63
2022/10/19 07:37:10;;;;;;;;;;;;;;;11.26;94.96;102527.25;20718593;28;19929;-65
2022/10/19 07:47:32;;;;;;;;;;;;;;;11.38;95.78;102525.91;20717496;28;19941;-64
2022/10/19 07:57:54;;;;;;;;;;;;;;;11.34;95.13;102522.59;20714201;28;19926;-64
2022/10/19 08:08:15;;;;;;;;;;;;;;;11.23;96.11;102529.16;20733332;28;19933;-64
2022/10/19 08:18:37;;;;;;;;;;;;;;;11.27;94.99;102547.25;20748340;28;19948;-65
2022/10/19 08:28:59;;;;;;;;;;;;;;;11.42;91.31;102538.78;20717827;28;20339;-64
2022/10/19 08:39:20;;;;;;;;;;;;;;;11.84;91.01;102542.25;20749925;27;19929;-68
2022/10/19 08:49:43;;;;;;;;;;;;;;;11.71;92.99;102534.09;20743125;28;19978;-64
2022/10/19 09:00:20;;;;;;;;;;;;;;;11.94;86.79;102536.56;20732661;28;19985;-64
2022/10/19 09:10:43;;;;;;;;;;;;;;;12.07;86.10;102536.91;20770081;28;19936;-64
2022/10/19 09:21:10;;;;;;;;;;;;;;;12.09;85.51;102524.59;20735554;28;19929;-64
2022/10/19 09:31:36;;;;;;;;;;;;;;;12.14;85.22;102525.25;20726895;28;19930;-64
2022/10/19 09:42:19;;;;;;;;;;;;;;;12.14;82.77;102517.41;20765606;27;20020;-64
2022/10/19 09:52:42;;;;;;;;;;;;;;;12.42;82.04;102517.88;20857320;28;19983;-64
2022/10/19 10:03:04;;;;;;;;;;;;;;;12.15;82.74;102517.34;20754306;28;19925;-65
2022/10/19 10:13:26;;;;;;;;;;;;;;;12.36;86.16;102516.38;20724696;28;19990;-65
2022/10/19 10:24:07;;;;;;;;;;;;;;;12.01;83.74;102516.25;20727628;28;19982;-65
2022/10/19 10:34:31;;;;;;;;;;;;;;;12.15;84.59;102517.34;20787048;28;19925;-66
2022/10/19 10:45:29;;;;;;;;;;;;;;;12.52;80.94;102506.94;20725203;28;20052;-64
2022/10/19 10:55:55;;;;;;;;;;;;;;;12.75;79.61;102494.47;20765946;28;19930;-65
2022/10/19 11:06:18;;;;;;;;;;;;;;;12.50;84.29;102478.25;20720609;28;19928;-67
2022/10/19 11:16:41;;;;;;;;;;;;;;;12.64;80.52;102459.28;20720071;28;19930;-64
2022/10/19 11:27:16;;;;;;;;;;;;;;;12.62;81.94;102450.63;20727112;28;19975;-65
2022/10/19 11:37:37;;;;;;;;;;;;;;;12.81;78.87;102449.69;20755912;28;20282;-66
2022/10/19 11:48:25;;;;;;;;;;;;;;;12.45;79.63;102441.91;20764816;28;20370;-66
2022/10/19 11:58:53;;;;;;;;;;;;;;;12.65;81.27;102419.97;20813129;28;20401;-65
2022/10/19 12:09:20;;;;;;;;;;;;;;;12.97;76.10;102398.31;20747107;28;20012;-64
2022/10/19 12:19:45;;;;;;;;;;;;;;;12.59;82.91;102401.94;20726803;28;20657;-64
2022/10/19 12:30:07;;;;;;;;;;;;;;;12.45;83.65;102402.66;20731848;28;19937;-64
2022/10/19 12:40:37;;;;;;;;;;;;;;;12.88;76.44;102384.84;20731034;27;19929;-65
2022/10/19 12:51:00;;;;;;;;;;;;;;;12.76;77.92;102373.19;20732930;28;19926;-66
2022/10/19 13:01:42;;;;;;;;;;;;;;;12.75;79.62;102361.03;20749702;28;19930;-65
2022/10/19 13:12:17;;;;;;;;;;;;;;;13.13;77.28;102341.66;20763387;27;19933;-64
2022/10/19 13:22:45;;;;;;;;;;;;;;;13.17;74.07;102331.91;20760948;28;20464;-65
2022/10/19 13:33:30;;;;;;;;;;;;;;;12.87;76.78;102321.16;20723878;28;20390;-64
2022/10/19 13:43:56;;;;;;;;;;;;;;;12.73;78.79;102312.31;20725475;28;19933;-64
2022/10/19 13:54:18;;;;;;;;;;;;;;;13.17;75.30;102298.69;20737233;28;19925;-64
2022/10/19 14:04:58;;;;;;;;;;;;;;;12.99;77.67;102280.47;20715060;28;20330;-65
2022/10/19 14:15:21;;;;;;;;;;;;;;;13.02;77.64;102286.38;20740787;28;19930;-65
2022/10/19 14:25:48;;;;;;;;;;;;;;;12.97;78.64;102272.69;20755993;28;19926;-65
2022/10/19 14:36:15;;;;;;;;;;;;;;;12.72;80.16;102261.75;20757955;28;19945;-66
2022/10/19 14:46:36;;;;;;;;;;;;;;;12.65;78.53;102244.66;20731165;28;20384;-67
2022/10/19 14:57:18;;;;;;;;;;;;;;;12.49;82.94;102237.66;20796908;28;19951;-65
2022/10/19 15:07:41;;;;;;;;;;;;;;;12.76;78.18;102231.88;20715013;28;20464;-65
2022/10/19 15:18:05;;;;;;;;;;;;;;;12.45;80.69;102232.66;20761662;28;20170;-63
2022/10/19 15:28:31;;;;;;;;;;;;;;;12.32;83.22;102239.41;20709129;28;20349;-63
2022/10/19 15:39:04;;;;;;;;;;;;;;;12.08;84.68;102232.78;20742233;28;19926;-63
2022/10/19 15:49:45;;;;;;;;;;;;;;;11.97;86.28;102224.59;20734780;28;19925;-63
2022/10/19 16:00:14;;;;;;;;;;;;;;;11.89;86.72;102224.13;20709825;28;19932;-64
2022/10/19 16:10:36;;;;;;;;;;;;;;;11.56;88.88;102220.47;20709949;28;19937;-63
2022/10/19 16:20:57;;;;;;;;;;;;;;;11.29;92.39;102207.78;20709019;28;19985;-64
2022/10/19 16:31:19;;;;;;;;;;;;;;;11.14;91.94;102208.47;20710107;28;19934;-63
2022/10/19 16:41:40;;;;;;;;;;;;;;;10.87;93.85;102207.97;20791194;28;19982;-64
2022/10/19 16:52:02;;;;;;;;;;;;;;;10.80;93.34;102209.13;20737949;28;19990;-64
2022/10/19 17:02:23;;;;;;;;;;;;;;;10.62;95.65;102204.69;20851779;28;19932;-63
2022/10/19 17:12:45;;;;;;;;;;;;;;;10.58;95.65;102204.91;20720292;28;20376;-64
2022/10/19 17:23:06;;;;;;;;;;;;;;;10.33;95.39;102206.00;20770263;28;19969;-64
2022/10/19 17:33:27;;;;;;;;;;;;;;;10.37;98.39;102200.59;20729361;28;19933;-63
2022/10/19 17:43:52;;;;;;;;;;;;;;;10.19;97.83;102190.94;20779104;28;19952;-63
2022/10/19 17:54:14;;;;;;;;;;;;;;;10.14;98.14;102208.50;20733269;28;21231;-64
2022/10/19 18:04:35;;;;;;;;;;;;;;;10.02;98.29;102205.56;20738433;28;19934;-64
2022/10/19 18:15:02;;;;;;;;;;;;;;;9.88;98.34;102202.63;20746212;28;19929;-64
2022/10/19 18:25:23;;;;;;;;;;;;;;;9.87;100.00;102203.53;20778253;28;19925;-63
2022/10/19 18:36:05;;;;;;;;;;;;;;;9.83;99.58;102191.53;20796360;28;20017;-63
2022/10/19 18:46:27;;;;;;;;;;;;;;;9.50;99.11;102177.22;20752974;28;19933;-64
2022/10/19 18:56:48;;;;;;;;;;;;;;;9.53;100.00;102149.31;20747203;28;19928;-64
2022/10/19 19:07:10;;;;;;;;;;;;;;;9.42;99.60;102131.59;20761820;28;19925;-63
2022/10/19 19:17:31;;;;;;;;;;;;;;;9.46;96.99;102139.22;20724782;28;19930;-63
2022/10/19 19:27:53;;;;;;;;;;;;;;;9.40;100.00;102122.97;20746987;28;19973;-63
2022/10/19 19:38:15;;;;;;;;;;;;;;;9.33;99.01;102122.38;20707504;27;19927;-64
2022/10/19 19:48:37;;;;;;;;;;;;;;;9.28;100.00;102121.72;20719371;28;19933;-64
2022/10/19 19:59:01;;;;;;;;;;;;;;;9.27;99.43;102117.44;20721759;28;19925;-64
2022/10/19 20:09:25;;;;;;;;;;;;;;;9.15;100.00;102112.72;20726961;28;20054;-63
2022/10/19 20:19:46;;;;;;;;;;;;;;;9.00;99.33;102108.09;20715859;28;20080;-64
2022/10/19 20:30:08;;;;;;;;;;;;;;;9.12;99.09;102092.00;20743193;28;20361;-64
2022/10/19 20:40:30;;;;;;;;;;;;;;;9.02;99.62;102069.00;20737319;27;20012;-64
2022/10/19 20:50:51;;;;;;;;;;;;;;;8.92;99.87;102071.09;20748089;28;20036;-64
2022/10/19 21:01:14;;;;;;;;;;;;;;;8.93;100.00;102067.59;20791690;28;19959;-64
2022/10/19 21:11:37;;;;;;;;;;;;;;;8.80;100.00;102049.94;20727534;28;19961;-64
2022/10/19 21:22:02;;;;;;;;;;;;;;;8.70;100.00;102032.97;20810090;28;19970;-64
2022/10/19 21:32:24;;;;;;;;;;;;;;;8.57;100.00;102029.13;20725460;28;19925;-63
2022/10/19 21:42:45;;;;;;;;;;;;;;;8.45;100.00;102028.72;20796002;28;19936;-64
2022/10/19 21:53:07;;;;;;;;;;;;;;;8.43;100.00;102021.00;20730520;28;19925;-64
2022/10/19 22:03:28;;;;;;;;;;;;;;;8.22;100.00;101995.81;20746369;28;19925;-64
2022/10/19 22:13:56;;;;;;;;;;;;;;;8.20;100.00;101976.00;20694024;28;20561;-64
2022/10/19 22:24:18;;;;;;;;;;;;;;;8.01;100.00;101977.50;20713440;28;19985;-64
2022/10/19 22:34:39;;;;;;;;;;;;;;;7.93;100.00;101972.59;20726405;28;19984;-63
2022/10/19 22:45:00;;;;;;;;;;;;;;;7.92;100.00;101950.16;20776633;28;19979;-63
2022/10/19 22:55:22;;;;;;;;;;;;;;;7.63;100.00;101949.47;20713320;28;19933;-64
2022/10/19 23:05:43;;;;;;;;;;;;;;;7.69;100.00;101936.31;20744659;28;19933;-64
2022/10/19 23:16:05;;;;;;;;;;;;;;;7.69;100.00;101931.09;20728158;28;19926;-64
2022/10/19 23:26:26;;;;;;;;;;;;;;;7.45;100.00;101921.56;20700799;28;20352;-64
2022/10/19 23:36:47;;;;;;;;;;;;;;;7.50;100.00;101924.84;20717830;28;20359;-63
2022/10/19 23:47:09;;;;;;;;;;;;;;;7.39;100.00;101916.59;20741356;28;19947;-63
2022/10/19 23:57:30;;;;;;;;;;;;;;;7.35;100.00;101881.28;20749112;28;19929;-64
